sensor_id;sensor_type;location;lat;lon;timestamp;temperature;humidity
4699;DHT22;33708;49.466;11.176;2024-03-07T00:00:08;1.70;7.90
4699;DHT22;33708;49.466;11.176;2024-03-07T00:02:50;1.80;10.00
4699;DHT22;33708;49.466;11.176;2024-03-07T00:05:18;3.20;9.10
4699;DHT22;33708;49.466;11.176;2024-03-07T00:07:45;1.60;6.80
4699;DHT22;33708;49.466;11.176;2024-03-07T00:10:29;1.30;8.30
4699;DHT22;33708;49.466;11.176;2024-03-07T00:13:23;1.50;9.60
4699;DHT22;33708;49.466;11.176;2024-03-07T00:15:48;1.00;6.00
4699;DHT22;33708;49.466;11.176;2024-03-07T00:18:14;1.20;6.60
4699;DHT22;33708;49.466;11.176;2024-03-07T00:20:41;1.20;6.30
4699;DHT22;33708;49.466;11.176;2024-03-07T00:23:07;2.00;6.10
4699;DHT22;33708;49.466;11.176;2024-03-07T00:25:34;1.20;6.40
4699;DHT22;33708;49.466;11.176;2024-03-07T00:28:00;1.30;13.20
4699;DHT22;33708;49.466;11.176;2024-03-07T00:30:29;1.30;8.00
4699;DHT22;33708;49.466;11.176;2024-03-07T00:32:55;1.30;7.70
4699;DHT22;33708;49.466;11.176;2024-03-07T00:35:21;1.40;9.70
4699;DHT22;33708;49.466;11.176;2024-03-07T00:37:47;1.60;11.40
4699;DHT22;33708;49.466;11.176;2024-03-07T00:40:13;1.80;15.90
4699;DHT22;33708;49.466;11.176;2024-03-07T00:42:38;2.00;13.50
4699;DHT22;33708;49.466;11.176;2024-03-07T00:45:05;2.00;12.00
4699;DHT22;33708;49.466;11.176;2024-03-07T00:47:32;2.10;24.20
4699;DHT22;33708;49.466;11.176;2024-03-07T00:49:57;2.30;14.50
4699;DHT22;33708;49.466;11.176;2024-03-07T00:52:23;2.60;16.60
4699;DHT22;33708;49.466;11.176;2024-03-07T00:54:48;2.80;35.80
4699;DHT22;33708;49.466;11.176;2024-03-07T00:57:15;2.90;19.30
4699;DHT22;33708;49.466;11.176;2024-03-07T00:59:40;3.90;17.50
4699;DHT22;33708;49.466;11.176;2024-03-07T01:02:06;2.90;14.30
4699;DHT22;33708;49.466;11.176;2024-03-07T01:04:32;2.80;14.10
4699;DHT22;33708;49.466;11.176;2024-03-07T01:06:59;2.80;17.40
4699;DHT22;33708;49.466;11.176;2024-03-07T01:09:28;3.90;21.80
4699;DHT22;33708;49.466;11.176;2024-03-07T01:11:54;3.50;20.10
4699;DHT22;33708;49.466;11.176;2024-03-07T01:14:21;3.60;19.80
4699;DHT22;33708;49.466;11.176;2024-03-07T01:16:46;3.80;21.90
4699;DHT22;33708;49.466;11.176;2024-03-07T01:19:12;3.80;17.00
4699;DHT22;33708;49.466;11.176;2024-03-07T01:21:38;3.70;15.70
4699;DHT22;33708;49.466;11.176;2024-03-07T01:24:04;3.80;17.50
4699;DHT22;33708;49.466;11.176;2024-03-07T01:26:30;3.60;11.40
4699;DHT22;33708;49.466;11.176;2024-03-07T01:28:57;3.50;10.90
4699;DHT22;33708;49.466;11.176;2024-03-07T01:31:24;3.30;6.70
4699;DHT22;33708;49.466;11.176;2024-03-07T01:33:50;4.70;8.10
4699;DHT22;33708;49.466;11.176;2024-03-07T01:36:15;3.40;8.90
4699;DHT22;33708;49.466;11.176;2024-03-07T01:38:42;3.60;12.70
4699;DHT22;33708;49.466;11.176;2024-03-07T01:41:13;3.70;13.30
4699;DHT22;33708;49.466;11.176;2024-03-07T01:43:40;3.70;13.00
4699;DHT22;33708;49.466;11.176;2024-03-07T01:46:06;3.80;13.10
4699;DHT22;33708;49.466;11.176;2024-03-07T01:48:32;3.80;13.20
4699;DHT22;33708;49.466;11.176;2024-03-07T01:51:01;3.90;16.60
4699;DHT22;33708;49.466;11.176;2024-03-07T01:53:30;3.90;16.50
4699;DHT22;33708;49.466;11.176;2024-03-07T01:55:56;3.80;17.80
4699;DHT22;33708;49.466;11.176;2024-03-07T01:58:24;5.70;17.50
4699;DHT22;33708;49.466;11.176;2024-03-07T02:00:49;3.70;29.40
4699;DHT22;33708;49.466;11.176;2024-03-07T02:03:16;3.50;21.10
4699;DHT22;33708;49.466;11.176;2024-03-07T02:05:42;3.70;15.40
4699;DHT22;33708;49.466;11.176;2024-03-07T02:08:08;3.80;21.70
4699;DHT22;33708;49.466;11.176;2024-03-07T02:10:33;4.00;20.10
4699;DHT22;33708;49.466;11.176;2024-03-07T02:12:59;4.00;19.90
4699;DHT22;33708;49.466;11.176;2024-03-07T02:15:26;3.80;16.00
4699;DHT22;33708;49.466;11.176;2024-03-07T02:17:52;3.70;14.50
4699;DHT22;33708;49.466;11.176;2024-03-07T02:20:18;3.70;12.70
4699;DHT22;33708;49.466;11.176;2024-03-07T02:22:44;3.70;8.60
4699;DHT22;33708;49.466;11.176;2024-03-07T02:25:09;3.50;6.70
4699;DHT22;33708;49.466;11.176;2024-03-07T02:27:38;3.50;6.20
4699;DHT22;33708;49.466;11.176;2024-03-07T02:30:04;3.50;5.60
4699;DHT22;33708;49.466;11.176;2024-03-07T02:32:34;3.40;4.80
4699;DHT22;33708;49.466;11.176;2024-03-07T02:34:59;4.00;5.50
4699;DHT22;33708;49.466;11.176;2024-03-07T02:37:25;3.40;7.90
4699;DHT22;33708;49.466;11.176;2024-03-07T02:39:50;3.30;4.30
4699;DHT22;33708;49.466;11.176;2024-03-07T02:42:16;3.20;3.00
4699;DHT22;33708;49.466;11.176;2024-03-07T02:44:42;3.10;3.70
4699;DHT22;33708;49.466;11.176;2024-03-07T02:47:07;3.10;1.80
4699;DHT22;33708;49.466;11.176;2024-03-07T02:49:33;2.90;1.00
4699;DHT22;33708;49.466;11.176;2024-03-07T02:51:59;3.00;1.00
4699;DHT22;33708;49.466;11.176;2024-03-07T02:54:24;2.90;1.00
4699;DHT22;33708;49.466;11.176;2024-03-07T02:56:50;2.90;1.00
4699;DHT22;33708;49.466;11.176;2024-03-07T02:59:15;2.80;8.60
4699;DHT22;33708;49.466;11.176;2024-03-07T03:01:42;2.80;1.00
4699;DHT22;33708;49.466;11.176;2024-03-07T03:04:07;2.80;1.00
4699;DHT22;33708;49.466;11.176;2024-03-07T03:06:33;2.80;1.00
4699;DHT22;33708;49.466;11.176;2024-03-07T03:08:59;2.80;1.00
4699;DHT22;33708;49.466;11.176;2024-03-07T03:11:24;3.80;1.00
4699;DHT22;33708;49.466;11.176;2024-03-07T03:13:53;2.70;1.00
4699;DHT22;33708;49.466;11.176;2024-03-07T03:16:19;2.60;1.00
4699;DHT22;33708;49.466;11.176;2024-03-07T03:18:44;2.50;1.00
4699;DHT22;33708;49.466;11.176;2024-03-07T03:21:10;3.40;1.00
4699;DHT22;33708;49.466;11.176;2024-03-07T03:23:35;2.50;1.00
4699;DHT22;33708;49.466;11.176;2024-03-07T03:26:01;2.30;1.00
4699;DHT22;33708;49.466;11.176;2024-03-07T03:28:26;2.40;1.00
4699;DHT22;33708;49.466;11.176;2024-03-07T03:30:52;2.30;1.00
4699;DHT22;33708;49.466;11.176;2024-03-07T03:33:18;2.00;1.00
4699;DHT22;33708;49.466;11.176;2024-03-07T03:35:44;2.10;1.00
4699;DHT22;33708;49.466;11.176;2024-03-07T03:38:10;2.00;1.00
4699;DHT22;33708;49.466;11.176;2024-03-07T03:40:35;1.90;1.00
4699;DHT22;33708;49.466;11.176;2024-03-07T03:43:02;1.60;1.00
4699;DHT22;33708;49.466;11.176;2024-03-07T03:45:27;1.70;1.00
4699;DHT22;33708;49.466;11.176;2024-03-07T03:47:54;1.60;1.00
4699;DHT22;33708;49.466;11.176;2024-03-07T03:50:20;1.50;1.00
4699;DHT22;33708;49.466;11.176;2024-03-07T03:52:46;1.40;1.00
4699;DHT22;33708;49.466;11.176;2024-03-07T03:55:12;1.30;1.00
4699;DHT22;33708;49.466;11.176;2024-03-07T03:57:39;1.20;1.00
4699;DHT22;33708;49.466;11.176;2024-03-07T04:00:06;1.20;1.00
4699;DHT22;33708;49.466;11.176;2024-03-07T04:02:45;1.10;1.00
4699;DHT22;33708;49.466;11.176;2024-03-07T04:05:15;1.10;1.00
4699;DHT22;33708;49.466;11.176;2024-03-07T04:07:41;1.00;1.00
4699;DHT22;33708;49.466;11.176;2024-03-07T04:10:08;1.00;1.00
4699;DHT22;33708;49.466;11.176;2024-03-07T04:12:38;0.90;1.00
4699;DHT22;33708;49.466;11.176;2024-03-07T04:17:31;0.70;1.00
4699;DHT22;33708;49.466;11.176;2024-03-07T04:19:57;0.60;1.00
4699;DHT22;33708;49.466;11.176;2024-03-07T04:22:24;0.50;1.00
4699;DHT22;33708;49.466;11.176;2024-03-07T04:24:50;0.50;1.00
4699;DHT22;33708;49.466;11.176;2024-03-07T04:27:19;0.50;1.00
4699;DHT22;33708;49.466;11.176;2024-03-07T04:29:45;0.60;1.00
4699;DHT22;33708;49.466;11.176;2024-03-07T04:32:13;0.50;1.00
4699;DHT22;33708;49.466;11.176;2024-03-07T04:34:39;0.70;1.00
4699;DHT22;33708;49.466;11.176;2024-03-07T04:37:05;0.70;1.00
4699;DHT22;33708;49.466;11.176;2024-03-07T04:39:30;0.90;1.00
4699;DHT22;33708;49.466;11.176;2024-03-07T04:42:07;0.90;1.00
4699;DHT22;33708;49.466;11.176;2024-03-07T04:44:34;0.90;1.00
4699;DHT22;33708;49.466;11.176;2024-03-07T04:47:01;1.00;1.00
4699;DHT22;33708;49.466;11.176;2024-03-07T04:49:30;1.10;1.00
4699;DHT22;33708;49.466;11.176;2024-03-07T04:51:57;1.00;1.00
4699;DHT22;33708;49.466;11.176;2024-03-07T04:54:27;1.10;1.00
4699;DHT22;33708;49.466;11.176;2024-03-07T04:56:53;1.10;1.00
4699;DHT22;33708;49.466;11.176;2024-03-07T04:59:20;1.30;1.20
4699;DHT22;33708;49.466;11.176;2024-03-07T05:01:47;1.50;6.50
4699;DHT22;33708;49.466;11.176;2024-03-07T05:04:13;1.60;3.80
4699;DHT22;33708;49.466;11.176;2024-03-07T05:06:40;1.50;3.50
4699;DHT22;33708;49.466;11.176;2024-03-07T05:09:07;1.50;2.90
4699;DHT22;33708;49.466;11.176;2024-03-07T05:11:34;1.50;3.00
4699;DHT22;33708;49.466;11.176;2024-03-07T05:14:00;1.70;6.90
4699;DHT22;33708;49.466;11.176;2024-03-07T05:16:27;1.90;8.20
4699;DHT22;33708;49.466;11.176;2024-03-07T05:18:53;2.00;8.40
4699;DHT22;33708;49.466;11.176;2024-03-07T05:21:19;2.00;6.20
4699;DHT22;33708;49.466;11.176;2024-03-07T05:24:05;2.00;5.50
4699;DHT22;33708;49.466;11.176;2024-03-07T05:26:31;2.10;6.30
4699;DHT22;33708;49.466;11.176;2024-03-07T05:29:05;2.40;11.90
4699;DHT22;33708;49.466;11.176;2024-03-07T05:31:34;2.40;8.00
4699;DHT22;33708;49.466;11.176;2024-03-07T05:34:00;2.20;5.80
4699;DHT22;33708;49.466;11.176;2024-03-07T05:36:32;2.10;3.20
4699;DHT22;33708;49.466;11.176;2024-03-07T05:38:58;2.20;4.10
4699;DHT22;33708;49.466;11.176;2024-03-07T05:41:24;2.30;6.20
4699;DHT22;33708;49.466;11.176;2024-03-07T05:43:53;2.60;11.10
4699;DHT22;33708;49.466;11.176;2024-03-07T05:46:19;2.70;9.40
4699;DHT22;33708;49.466;11.176;2024-03-07T05:48:45;2.80;8.20
4699;DHT22;33708;49.466;11.176;2024-03-07T05:51:11;2.60;4.70
4699;DHT22;33708;49.466;11.176;2024-03-07T05:53:37;2.50;4.60
4699;DHT22;33708;49.466;11.176;2024-03-07T05:56:03;4.00;16.90
4699;DHT22;33708;49.466;11.176;2024-03-07T05:58:29;2.80;7.20
4699;DHT22;33708;49.466;11.176;2024-03-07T06:00:54;2.60;3.00
4699;DHT22;33708;49.466;11.176;2024-03-07T06:03:20;2.50;3.30
4699;DHT22;33708;49.466;11.176;2024-03-07T06:05:46;2.50;3.20
4699;DHT22;33708;49.466;11.176;2024-03-07T06:08:19;2.50;1.80
4699;DHT22;33708;49.466;11.176;2024-03-07T06:10:45;2.50;3.30
4699;DHT22;33708;49.466;11.176;2024-03-07T06:13:13;2.70;3.30
4699;DHT22;33708;49.466;11.176;2024-03-07T06:15:39;2.90;6.40
4699;DHT22;33708;49.466;11.176;2024-03-07T06:18:05;3.10;8.40
4699;DHT22;33708;49.466;11.176;2024-03-07T06:20:33;3.50;8.60
4699;DHT22;33708;49.466;11.176;2024-03-07T06:23:01;3.10;7.80
4699;DHT22;33708;49.466;11.176;2024-03-07T06:25:31;3.40;8.60
4699;DHT22;33708;49.466;11.176;2024-03-07T06:28:11;3.70;8.20
4699;DHT22;33708;49.466;11.176;2024-03-07T06:30:37;3.50;6.60
4699;DHT22;33708;49.466;11.176;2024-03-07T06:33:04;3.40;4.50
4699;DHT22;33708;49.466;11.176;2024-03-07T06:35:29;3.40;4.10
4699;DHT22;33708;49.466;11.176;2024-03-07T06:37:55;3.30;3.00
4699;DHT22;33708;49.466;11.176;2024-03-07T06:40:20;3.30;3.30
4699;DHT22;33708;49.466;11.176;2024-03-07T06:42:50;3.50;2.70
4699;DHT22;33708;49.466;11.176;2024-03-07T06:45:18;3.70;6.20
4699;DHT22;33708;49.466;11.176;2024-03-07T06:47:45;3.60;5.10
4699;DHT22;33708;49.466;11.176;2024-03-07T06:50:10;3.30;1.50
4699;DHT22;33708;49.466;11.176;2024-03-07T06:52:40;3.10;1.00
4699;DHT22;33708;49.466;11.176;2024-03-07T06:55:06;3.00;1.00
4699;DHT22;33708;49.466;11.176;2024-03-07T06:57:32;3.10;1.00
4699;DHT22;33708;49.466;11.176;2024-03-07T06:59:59;3.90;9.00
4699;DHT22;33708;49.466;11.176;2024-03-07T07:02:25;5.90;24.80
4699;DHT22;33708;49.466;11.176;2024-03-07T07:04:53;7.40;30.00
4699;DHT22;33708;49.466;11.176;2024-03-07T07:07:20;7.70;26.20
4699;DHT22;33708;49.466;11.176;2024-03-07T07:09:45;7.90;22.80
4699;DHT22;33708;49.466;11.176;2024-03-07T07:12:11;9.30;27.60
4699;DHT22;33708;49.466;11.176;2024-03-07T07:14:37;9.90;24.40
4699;DHT22;33708;49.466;11.176;2024-03-07T07:17:04;10.60;25.50
4699;DHT22;33708;49.466;11.176;2024-03-07T07:19:30;9.30;12.50
4699;DHT22;33708;49.466;11.176;2024-03-07T07:21:55;10.50;17.90
4699;DHT22;33708;49.466;11.176;2024-03-07T07:24:21;8.50;1.00
4699;DHT22;33708;49.466;11.176;2024-03-07T07:26:49;8.50;1.00
4699;DHT22;33708;49.466;11.176;2024-03-07T07:29:15;8.80;1.70
4699;DHT22;33708;49.466;11.176;2024-03-07T07:31:41;8.80;1.00
4699;DHT22;33708;49.466;11.176;2024-03-07T07:34:07;9.60;4.20
4699;DHT22;33708;49.466;11.176;2024-03-07T07:36:32;11.10;17.40
4699;DHT22;33708;49.466;11.176;2024-03-07T07:38:58;11.20;12.70
4699;DHT22;33708;49.466;11.176;2024-03-07T07:41:24;12.20;12.30
4699;DHT22;33708;49.466;11.176;2024-03-07T07:43:49;12.80;11.90
4699;DHT22;33708;49.466;11.176;2024-03-07T07:46:17;12.60;6.80
4699;DHT22;33708;49.466;11.176;2024-03-07T07:48:42;10.90;1.00
4699;DHT22;33708;49.466;11.176;2024-03-07T07:51:08;11.90;1.90
4699;DHT22;33708;49.466;11.176;2024-03-07T07:53:34;12.60;1.00
4699;DHT22;33708;49.466;11.176;2024-03-07T07:56:00;13.40;2.30
4699;DHT22;33708;49.466;11.176;2024-03-07T07:58:26;13.30;3.30
4699;DHT22;33708;49.466;11.176;2024-03-07T08:00:52;14.10;3.90
4699;DHT22;33708;49.466;11.176;2024-03-07T08:03:17;14.50;10.20
4699;DHT22;33708;49.466;11.176;2024-03-07T08:05:44;15.30;6.00
4699;DHT22;33708;49.466;11.176;2024-03-07T08:08:12;15.80;2.60
4699;DHT22;33708;49.466;11.176;2024-03-07T08:10:41;14.40;1.00
4699;DHT22;33708;49.466;11.176;2024-03-07T08:13:07;15.80;99.90
4699;DHT22;33708;49.466;11.176;2024-03-07T08:15:36;15.70;53.50
4699;DHT22;33708;49.466;11.176;2024-03-07T08:18:02;15.40;1.00
4699;DHT22;33708;49.466;11.176;2024-03-07T08:20:34;14.60;1.00
4699;DHT22;33708;49.466;11.176;2024-03-07T08:23:00;16.40;1.00
4699;DHT22;33708;49.466;11.176;2024-03-07T08:25:27;15.80;1.00
4699;DHT22;33708;49.466;11.176;2024-03-07T08:27:54;15.90;19.50
4699;DHT22;33708;49.466;11.176;2024-03-07T08:30:20;15.90;13.60
4699;DHT22;33708;49.466;11.176;2024-03-07T08:32:51;16.40;50.50
4699;DHT22;33708;49.466;11.176;2024-03-07T08:35:17;14.70;94.10
4699;DHT22;33708;49.466;11.176;2024-03-07T08:37:45;15.30;52.30
4699;DHT22;33708;49.466;11.176;2024-03-07T08:40:11;13.40;38.70
4699;DHT22;33708;49.466;11.176;2024-03-07T08:42:48;13.70;30.50
4699;DHT22;33708;49.466;11.176;2024-03-07T08:45:16;12.30;16.70
4699;DHT22;33708;49.466;11.176;2024-03-07T08:47:48;12.20;1.00
4699;DHT22;33708;49.466;11.176;2024-03-07T08:50:14;11.50;1.00
4699;DHT22;33708;49.466;11.176;2024-03-07T08:52:41;11.70;1.00
4699;DHT22;33708;49.466;11.176;2024-03-07T08:55:09;10.60;1.00
4699;DHT22;33708;49.466;11.176;2024-03-07T08:57:38;10.50;1.00
4699;DHT22;33708;49.466;11.176;2024-03-07T09:00:07;10.30;1.00
4699;DHT22;33708;49.466;11.176;2024-03-07T09:02:42;9.80;1.00
4699;DHT22;33708;49.466;11.176;2024-03-07T09:05:08;10.90;99.90
4699;DHT22;33708;49.466;11.176;2024-03-07T09:07:35;10.10;99.90
4699;DHT22;33708;49.466;11.176;2024-03-07T09:10:01;9.50;1.00
4699;DHT22;33708;49.466;11.176;2024-03-07T09:12:27;8.90;99.90
4699;DHT22;33708;49.466;11.176;2024-03-07T09:14:53;9.10;1.00
4699;DHT22;33708;49.466;11.176;2024-03-07T09:17:20;8.50;99.90
4699;DHT22;33708;49.466;11.176;2024-03-07T09:19:45;8.70;1.00
4699;DHT22;33708;49.466;11.176;2024-03-07T09:22:11;8.40;1.00
4699;DHT22;33708;49.466;11.176;2024-03-07T09:24:37;7.60;1.00
4699;DHT22;33708;49.466;11.176;2024-03-07T09:27:05;7.80;1.00
4699;DHT22;33708;49.466;11.176;2024-03-07T09:29:31;8.10;1.00
4699;DHT22;33708;49.466;11.176;2024-03-07T09:31:57;8.30;1.00
4699;DHT22;33708;49.466;11.176;2024-03-07T09:34:25;8.30;1.00
4699;DHT22;33708;49.466;11.176;2024-03-07T09:36:51;7.90;1.00
4699;DHT22;33708;49.466;11.176;2024-03-07T09:39:17;7.80;1.00
4699;DHT22;33708;49.466;11.176;2024-03-07T09:41:44;8.10;1.00
4699;DHT22;33708;49.466;11.176;2024-03-07T09:44:12;7.80;1.00
4699;DHT22;33708;49.466;11.176;2024-03-07T09:46:40;7.80;1.00
4699;DHT22;33708;49.466;11.176;2024-03-07T09:49:05;7.80;1.00
4699;DHT22;33708;49.466;11.176;2024-03-07T09:51:35;7.60;1.00
4699;DHT22;33708;49.466;11.176;2024-03-07T09:54:01;7.60;1.00
4699;DHT22;33708;49.466;11.176;2024-03-07T09:56:28;7.40;1.00
4699;DHT22;33708;49.466;11.176;2024-03-07T09:58:57;7.70;1.00
4699;DHT22;33708;49.466;11.176;2024-03-07T10:01:26;8.00;1.00
4699;DHT22;33708;49.466;11.176;2024-03-07T10:04:01;7.70;1.00
4699;DHT22;33708;49.466;11.176;2024-03-07T10:06:37;8.20;1.00
4699;DHT22;33708;49.466;11.176;2024-03-07T10:09:04;8.40;1.00
4699;DHT22;33708;49.466;11.176;2024-03-07T10:11:30;8.40;1.00
4699;DHT22;33708;49.466;11.176;2024-03-07T10:13:56;8.20;1.00
4699;DHT22;33708;49.466;11.176;2024-03-07T10:16:21;7.80;1.00
4699;DHT22;33708;49.466;11.176;2024-03-07T10:18:48;8.30;1.00
4699;DHT22;33708;49.466;11.176;2024-03-07T10:21:18;8.50;1.00
4699;DHT22;33708;49.466;11.176;2024-03-07T10:23:44;8.70;1.00
4699;DHT22;33708;49.466;11.176;2024-03-07T10:26:10;8.70;1.00
4699;DHT22;33708;49.466;11.176;2024-03-07T10:28:37;8.60;1.00
4699;DHT22;33708;49.466;11.176;2024-03-07T10:31:04;9.40;1.00
4699;DHT22;33708;49.466;11.176;2024-03-07T10:33:34;9.00;1.00
4699;DHT22;33708;49.466;11.176;2024-03-07T10:36:00;8.10;1.00
4699;DHT22;33708;49.466;11.176;2024-03-07T10:38:27;8.70;1.00
4699;DHT22;33708;49.466;11.176;2024-03-07T10:40:54;8.40;1.00
4699;DHT22;33708;49.466;11.176;2024-03-07T10:43:26;8.70;1.00
4699;DHT22;33708;49.466;11.176;2024-03-07T10:45:58;9.20;1.00
4699;DHT22;33708;49.466;11.176;2024-03-07T10:48:29;9.10;1.00
4699;DHT22;33708;49.466;11.176;2024-03-07T10:51:20;8.90;1.00
4699;DHT22;33708;49.466;11.176;2024-03-07T10:56:37;10.20;1.00
4699;DHT22;33708;49.466;11.176;2024-03-07T10:59:20;10.40;1.00
4699;DHT22;33708;49.466;11.176;2024-03-07T11:02:24;9.60;1.00
4699;DHT22;33708;49.466;11.176;2024-03-07T11:04:52;9.70;1.00
4699;DHT22;33708;49.466;11.176;2024-03-07T11:07:22;9.70;1.00
4699;DHT22;33708;49.466;11.176;2024-03-07T11:09:52;10.00;1.00
4699;DHT22;33708;49.466;11.176;2024-03-07T11:12:25;9.90;1.00
4699;DHT22;33708;49.466;11.176;2024-03-07T11:14:52;10.00;1.00
4699;DHT22;33708;49.466;11.176;2024-03-07T11:17:19;9.70;1.00
4699;DHT22;33708;49.466;11.176;2024-03-07T11:19:45;9.80;1.00
4699;DHT22;33708;49.466;11.176;2024-03-07T11:22:28;9.60;1.00
4699;DHT22;33708;49.466;11.176;2024-03-07T11:25:04;9.70;1.00
4699;DHT22;33708;49.466;11.176;2024-03-07T11:27:33;9.50;1.00
4699;DHT22;33708;49.466;11.176;2024-03-07T11:30:09;9.00;1.00
4699;DHT22;33708;49.466;11.176;2024-03-07T11:32:37;9.80;1.00
4699;DHT22;33708;49.466;11.176;2024-03-07T11:35:11;9.60;1.00
4699;DHT22;33708;49.466;11.176;2024-03-07T11:37:43;10.00;1.00
4699;DHT22;33708;49.466;11.176;2024-03-07T11:42:51;9.10;1.00
4699;DHT22;33708;49.466;11.176;2024-03-07T11:45:18;9.40;1.00
4699;DHT22;33708;49.466;11.176;2024-03-07T11:47:54;9.60;1.00
4699;DHT22;33708;49.466;11.176;2024-03-07T11:50:25;9.90;1.00
4699;DHT22;33708;49.466;11.176;2024-03-07T11:52:57;9.40;1.00
4699;DHT22;33708;49.466;11.176;2024-03-07T11:55:23;9.40;1.00
4699;DHT22;33708;49.466;11.176;2024-03-07T11:57:50;9.40;1.00
4699;DHT22;33708;49.466;11.176;2024-03-07T12:00:19;9.50;1.00
4699;DHT22;33708;49.466;11.176;2024-03-07T12:02:45;9.40;1.00
4699;DHT22;33708;49.466;11.176;2024-03-07T12:05:14;9.50;1.00
4699;DHT22;33708;49.466;11.176;2024-03-07T12:07:42;9.10;1.00
4699;DHT22;33708;49.466;11.176;2024-03-07T12:10:09;9.40;1.00
4699;DHT22;33708;49.466;11.176;2024-03-07T12:12:35;9.20;1.00
4699;DHT22;33708;49.466;11.176;2024-03-07T12:15:04;9.50;1.00
4699;DHT22;33708;49.466;11.176;2024-03-07T12:17:35;9.20;1.00
4699;DHT22;33708;49.466;11.176;2024-03-07T12:20:00;9.90;1.00
4699;DHT22;33708;49.466;11.176;2024-03-07T12:22:47;9.90;1.00
4699;DHT22;33708;49.466;11.176;2024-03-07T12:25:18;9.70;1.00
4699;DHT22;33708;49.466;11.176;2024-03-07T12:30:55;9.50;1.00
4699;DHT22;33708;49.466;11.176;2024-03-07T12:33:22;9.80;1.00
4699;DHT22;33708;49.466;11.176;2024-03-07T12:35:51;9.70;1.00
4699;DHT22;33708;49.466;11.176;2024-03-07T12:38:20;9.60;1.00
4699;DHT22;33708;49.466;11.176;2024-03-07T12:41:05;9.40;1.00
4699;DHT22;33708;49.466;11.176;2024-03-07T12:43:42;9.00;1.00
4699;DHT22;33708;49.466;11.176;2024-03-07T12:46:10;9.10;1.00
4699;DHT22;33708;49.466;11.176;2024-03-07T12:48:37;8.60;1.00
4699;DHT22;33708;49.466;11.176;2024-03-07T12:51:04;9.00;1.00
4699;DHT22;33708;49.466;11.176;2024-03-07T12:53:31;9.10;1.00
4699;DHT22;33708;49.466;11.176;2024-03-07T12:56:00;8.90;1.00
4699;DHT22;33708;49.466;11.176;2024-03-07T12:58:26;8.90;1.00
4699;DHT22;33708;49.466;11.176;2024-03-07T13:00:54;8.60;1.00
4699;DHT22;33708;49.466;11.176;2024-03-07T13:03:24;9.00;1.00
4699;DHT22;33708;49.466;11.176;2024-03-07T13:05:58;8.80;1.00
4699;DHT22;33708;49.466;11.176;2024-03-07T13:08:27;9.00;1.00
4699;DHT22;33708;49.466;11.176;2024-03-07T13:10:55;9.00;1.00
4699;DHT22;33708;49.466;11.176;2024-03-07T13:13:21;9.00;1.00
4699;DHT22;33708;49.466;11.176;2024-03-07T13:15:47;8.80;1.00
4699;DHT22;33708;49.466;11.176;2024-03-07T13:18:13;8.90;1.00
4699;DHT22;33708;49.466;11.176;2024-03-07T13:20:39;8.80;1.00
4699;DHT22;33708;49.466;11.176;2024-03-07T13:23:11;8.50;1.00
4699;DHT22;33708;49.466;11.176;2024-03-07T13:25:37;9.60;1.00
4699;DHT22;33708;49.466;11.176;2024-03-07T13:28:09;8.80;1.00
4699;DHT22;33708;49.466;11.176;2024-03-07T13:30:41;8.80;1.00
4699;DHT22;33708;49.466;11.176;2024-03-07T13:33:09;8.90;1.00
4699;DHT22;33708;49.466;11.176;2024-03-07T13:35:39;8.70;1.00
4699;DHT22;33708;49.466;11.176;2024-03-07T13:38:06;8.70;1.00
4699;DHT22;33708;49.466;11.176;2024-03-07T13:40:32;8.60;1.00
4699;DHT22;33708;49.466;11.176;2024-03-07T13:43:04;8.40;1.00
4699;DHT22;33708;49.466;11.176;2024-03-07T13:45:32;8.50;1.00
4699;DHT22;33708;49.466;11.176;2024-03-07T13:48:02;8.40;1.00
4699;DHT22;33708;49.466;11.176;2024-03-07T13:50:31;8.20;1.00
4699;DHT22;33708;49.466;11.176;2024-03-07T13:52:58;8.40;1.00
4699;DHT22;33708;49.466;11.176;2024-03-07T13:56:16;8.60;1.00
4699;DHT22;33708;49.466;11.176;2024-03-07T14:01:45;8.40;1.00
4699;DHT22;33708;49.466;11.176;2024-03-07T14:04:32;8.40;1.00
4699;DHT22;33708;49.466;11.176;2024-03-07T14:07:33;8.40;1.00
4699;DHT22;33708;49.466;11.176;2024-03-07T14:13:22;8.40;1.00
4699;DHT22;33708;49.466;11.176;2024-03-07T14:32:32;8.00;1.00
4699;DHT22;33708;49.466;11.176;2024-03-07T14:35:02;8.10;1.00
4699;DHT22;33708;49.466;11.176;2024-03-07T14:40:22;7.70;1.00
4699;DHT22;33708;49.466;11.176;2024-03-07T14:42:50;7.80;1.00
4699;DHT22;33708;49.466;11.176;2024-03-07T14:45:21;7.70;1.00
4699;DHT22;33708;49.466;11.176;2024-03-07T14:47:50;8.40;1.00
4699;DHT22;33708;49.466;11.176;2024-03-07T14:50:18;7.70;1.00
4699;DHT22;33708;49.466;11.176;2024-03-07T14:52:46;7.90;1.00
4699;DHT22;33708;49.466;11.176;2024-03-07T14:55:12;7.80;1.00
4699;DHT22;33708;49.466;11.176;2024-03-07T14:57:41;7.50;1.00
4699;DHT22;33708;49.466;11.176;2024-03-07T15:00:08;7.60;1.00
4699;DHT22;33708;49.466;11.176;2024-03-07T15:02:47;7.40;1.00
4699;DHT22;33708;49.466;11.176;2024-03-07T15:05:15;7.50;1.00
4699;DHT22;33708;49.466;11.176;2024-03-07T15:07:41;7.50;1.00
4699;DHT22;33708;49.466;11.176;2024-03-07T15:10:13;7.50;1.00
4699;DHT22;33708;49.466;11.176;2024-03-07T15:12:47;7.70;1.00
4699;DHT22;33708;49.466;11.176;2024-03-07T15:15:16;7.50;1.00
4699;DHT22;33708;49.466;11.176;2024-03-07T15:17:45;7.50;1.00
4699;DHT22;33708;49.466;11.176;2024-03-07T15:20:14;7.50;1.00
4699;DHT22;33708;49.466;11.176;2024-03-07T15:23:07;7.70;1.00
4699;DHT22;33708;49.466;11.176;2024-03-07T15:25:32;7.40;1.00
4699;DHT22;33708;49.466;11.176;2024-03-07T15:27:59;7.40;1.00
4699;DHT22;33708;49.466;11.176;2024-03-07T15:30:26;7.40;1.00
4699;DHT22;33708;49.466;11.176;2024-03-07T15:33:00;7.20;1.00
4699;DHT22;33708;49.466;11.176;2024-03-07T15:35:26;7.30;1.00
4699;DHT22;33708;49.466;11.176;2024-03-07T15:37:52;7.20;1.00
4699;DHT22;33708;49.466;11.176;2024-03-07T15:40:22;7.00;1.00
4699;DHT22;33708;49.466;11.176;2024-03-07T15:42:49;7.00;1.00
4699;DHT22;33708;49.466;11.176;2024-03-07T15:45:20;7.10;1.00
4699;DHT22;33708;49.466;11.176;2024-03-07T15:47:51;7.00;1.00
4699;DHT22;33708;49.466;11.176;2024-03-07T15:50:18;7.10;1.00
4699;DHT22;33708;49.466;11.176;2024-03-07T15:52:45;7.20;1.00
4699;DHT22;33708;49.466;11.176;2024-03-07T15:55:11;7.10;1.00
4699;DHT22;33708;49.466;11.176;2024-03-07T15:57:49;7.10;1.00
4699;DHT22;33708;49.466;11.176;2024-03-07T16:00:20;7.10;1.00
4699;DHT22;33708;49.466;11.176;2024-03-07T16:02:59;7.00;1.00
4699;DHT22;33708;49.466;11.176;2024-03-07T16:05:32;7.10;1.00
4699;DHT22;33708;49.466;11.176;2024-03-07T16:08:00;7.00;1.00
4699;DHT22;33708;49.466;11.176;2024-03-07T16:10:30;6.80;1.00
4699;DHT22;33708;49.466;11.176;2024-03-07T16:12:59;6.90;1.00
4699;DHT22;33708;49.466;11.176;2024-03-07T16:15:26;6.80;1.00
4699;DHT22;33708;49.466;11.176;2024-03-07T16:17:53;6.20;1.00
4699;DHT22;33708;49.466;11.176;2024-03-07T16:20:21;6.10;1.00
4699;DHT22;33708;49.466;11.176;2024-03-07T16:22:47;6.80;1.00
4699;DHT22;33708;49.466;11.176;2024-03-07T16:25:18;6.70;1.00
4699;DHT22;33708;49.466;11.176;2024-03-07T16:27:46;6.80;1.00
4699;DHT22;33708;49.466;11.176;2024-03-07T16:30:13;6.80;1.00
4699;DHT22;33708;49.466;11.176;2024-03-07T16:32:39;6.80;1.00
4699;DHT22;33708;49.466;11.176;2024-03-07T16:35:06;6.50;1.00
4699;DHT22;33708;49.466;11.176;2024-03-07T16:37:40;6.60;1.00
4699;DHT22;33708;49.466;11.176;2024-03-07T16:40:10;6.60;1.00